Time;durP1;ratioP1;P1;durP2;ratioP2;P2;SDS_P1;SDS_P2;PMS_P1;PMS_P2;Temp;Humidity;BMP_temperature;BMP_pressure;BME280_temperature;BME280_humidity;BME280_pressure;Samples;Min_cycle;Max_cycle;Signal;HPM_P1;HPM_P2
2021/09/23 00:00:57;;;;;;;20.58;8.30;;;;;;;20.98;60.55;101339.00;4983518;28;121794;-72
2021/09/23 00:05:55;;;;;;;15.60;7.35;;;;;;;21.01;59.57;101327.59;4978164;28;121428;-72
2021/09/23 00:08:21;;;;;;;17.30;8.00;;;;;;;20.99;60.27;101321.00;4982505;28;121937;-72
2021/09/23 00:10:47;;;;;;;20.13;7.78;;;;;;;21.01;59.57;101316.44;4982949;28;122050;-72
2021/09/23 00:13:14;;;;;;;16.92;7.40;;;;;;;20.99;59.26;101307.81;4981607;28;121273;-72
2021/09/23 00:15:41;;;;;;;16.73;7.43;;;;;;;20.99;59.35;101307.06;4984404;28;121624;-71
2021/09/23 00:18:10;;;;;;;20.48;7.25;;;;;;;20.98;60.10;101300.72;4982090;28;121918;-71
2021/09/23 00:20:39;;;;;;;16.73;7.03;;;;;;;21.00;60.07;101294.66;4983871;28;121860;-71
2021/09/23 00:23:05;;;;;;;18.53;7.50;;;;;;;20.99;60.05;101285.53;4965837;28;122333;-72
2021/09/23 00:25:31;;;;;;;19.15;7.25;;;;;;;20.97;60.09;101276.91;4978464;28;121601;-71
2021/09/23 00:28:01;;;;;;;17.38;7.25;;;;;;;21.03;60.17;101260.16;4964682;28;121408;-72
2021/09/23 00:30:27;;;;;;;20.23;7.38;;;;;;;21.04;59.89;101270.03;4964165;28;123574;-71
2021/09/23 00:32:54;;;;;;;25.20;7.90;;;;;;;21.04;60.13;101278.41;4962660;28;121599;-71
2021/09/23 00:35:19;;;;;;;18.77;8.20;;;;;;;21.01;60.44;101274.59;4979072;28;122040;-71
2021/09/23 00:37:46;;;;;;;22.27;8.13;;;;;;;21.02;60.64;101262.19;4964392;28;122448;-72
2021/09/23 00:40:12;;;;;;;22.67;8.77;;;;;;;21.00;61.05;101252.81;4962507;28;122421;-72
2021/09/23 00:42:40;;;;;;;21.65;8.68;;;;;;;21.05;60.64;101249.25;4968587;28;122282;-71
2021/09/23 00:45:08;;;;;;;20.35;8.43;;;;;;;21.06;60.75;101248.75;4984475;28;122874;-71
2021/09/23 00:47:36;;;;;;;22.90;8.88;;;;;;;21.11;60.32;101241.66;4963503;28;122329;-71
2021/09/23 00:50:04;;;;;;;19.08;8.55;;;;;;;21.12;60.27;101232.00;4984100;28;121741;-71
2021/09/23 00:52:31;;;;;;;21.35;9.30;;;;;;;21.13;60.21;101227.94;4981490;28;122313;-71
2021/09/23 00:54:58;;;;;;;20.85;9.77;;;;;;;21.17;60.53;101234.03;4953777;28;121982;-71
2021/09/23 00:57:24;;;;;;;22.23;9.80;;;;;;;21.15;60.41;101220.59;4965908;28;122469;-71
2021/09/23 00:59:55;;;;;;;24.60;10.65;;;;;;;21.21;60.39;101214.22;4972371;28;121810;-71
2021/09/23 01:02:22;;;;;;;21.23;10.68;;;;;;;21.21;60.07;101220.56;4982021;28;121451;-71
2021/09/23 01:04:50;;;;;;;24.02;10.13;;;;;;;21.24;60.19;101204.84;4944667;28;123802;-72
2021/09/23 01:07:18;;;;;;;20.33;10.10;;;;;;;21.24;60.26;101205.63;4978746;28;122077;-71
2021/09/23 01:09:52;;;;;;;21.05;10.68;;;;;;;21.25;59.95;101215.50;4964655;28;123883;-71
2021/09/23 01:12:22;;;;;;;21.03;10.60;;;;;;;21.25;60.24;101214.75;4978584;28;122854;-71
2021/09/23 01:14:49;;;;;;;20.98;10.10;;;;;;;21.24;59.69;101208.41;4970774;28;121967;-71
2021/09/23 01:17:15;;;;;;;21.93;11.07;;;;;;;21.23;60.62;101204.06;4965767;28;121910;-71
2021/09/23 01:19:49;;;;;;;21.10;10.55;;;;;;;21.24;60.24;101200.03;4955610;28;125250;-71
2021/09/23 01:22:17;;;;;;;19.02;10.35;;;;;;;21.24;60.62;101183.31;4979513;28;121075;-71
2021/09/23 01:25:05;;;;;;;19.33;10.20;;;;;;;21.21;59.90;101170.34;4980110;28;122471;-71
2021/09/23 01:27:34;;;;;;;20.90;10.55;;;;;;;21.19;60.40;101164.53;4971692;28;123984;-71
2021/09/23 01:30:03;;;;;;;20.00;10.43;;;;;;;21.25;60.29;101156.91;4978193;28;122046;-71
2021/09/23 01:32:30;;;;;;;20.35;10.00;;;;;;;21.25;60.47;101142.97;4966146;28;123111;-71
2021/09/23 01:34:56;;;;;;;22.10;10.33;;;;;;;21.25;60.35;101158.94;4980626;28;121922;-71
2021/09/23 01:37:23;;;;;;;19.97;9.93;;;;;;;21.26;60.83;101147.28;4958417;28;122251;-70
2021/09/23 01:39:52;;;;;;;23.47;10.67;;;;;;;21.28;60.38;101144.72;4948968;28;123933;-71
2021/09/23 01:42:22;;;;;;;18.38;9.52;;;;;;;21.32;60.13;101150.06;4965832;28;121672;-71
2021/09/23 01:44:48;;;;;;;22.43;10.13;;;;;;;21.31;61.20;101143.72;4978201;28;122104;-72
2021/09/23 01:47:15;;;;;;;21.77;10.35;;;;;;;21.36;60.65;101147.75;4979189;28;122100;-71
2021/09/23 01:49:48;;;;;;;20.60;9.83;;;;;;;21.37;60.76;101143.69;4965476;28;121916;-71
2021/09/23 01:52:15;;;;;;;25.40;9.88;;;;;;;21.39;60.49;101141.91;4944705;28;125241;-71
2021/09/23 01:54:50;;;;;;;22.45;9.45;;;;;;;21.40;60.24;101135.03;4985993;28;121576;-71
2021/09/23 01:57:16;;;;;;;20.95;10.20;;;;;;;21.40;60.73;101128.69;4968909;28;123212;-71
2021/09/23 01:59:42;;;;;;;26.55;10.20;;;;;;;21.39;61.05;101119.56;4946409;28;121978;-71
2021/09/23 02:02:13;;;;;;;25.05;10.25;;;;;;;21.38;60.85;101111.72;4970575;28;122734;-71
2021/09/23 02:04:38;;;;;;;20.40;9.45;;;;;;;21.35;61.17;101096.78;4994567;28;122078;-71
2021/09/23 02:07:05;;;;;;;26.02;9.70;;;;;;;21.36;61.26;101089.16;4979017;28;121462;-71
2021/09/23 02:09:32;;;;;;;26.83;10.50;;;;;;;21.35;61.73;101077.25;4979401;28;121980;-71
2021/09/23 02:12:01;;;;;;;26.20;9.95;;;;;;;21.39;61.49;101072.13;4948289;28;121418;-71
2021/09/23 02:14:28;;;;;;;26.42;10.27;;;;;;;21.40;61.34;101070.84;4970672;28;121846;-71
2021/09/23 02:16:54;;;;;;;26.33;10.90;;;;;;;21.41;62.05;101060.44;4953268;28;122697;-71
2021/09/23 02:19:50;;;;;;;26.33;10.80;;;;;;;21.43;61.87;101072.63;4978137;28;122331;-71
2021/09/23 02:22:17;;;;;;;27.02;10.93;;;;;;;21.40;61.60;101061.72;4977942;28;122649;-71
2021/09/23 02:24:45;;;;;;;25.10;10.60;;;;;;;21.43;62.32;101067.03;4960709;28;121797;-71
2021/09/23 02:27:11;;;;;;;28.93;10.50;;;;;;;21.46;61.93;101059.66;4961354;28;124137;-71
2021/09/23 02:29:37;;;;;;;26.27;11.13;;;;;;;21.48;61.83;101048.72;4949046;28;123904;-71
2021/09/23 02:32:04;;;;;;;26.48;11.00;;;;;;;21.50;62.05;101053.78;4982288;28;121742;-71
2021/09/23 02:34:30;;;;;;;26.10;10.87;;;;;;;21.52;61.81;101054.78;4983639;28;121901;-71
2021/09/23 02:36:56;;;;;;;25.98;10.70;;;;;;;21.54;61.91;101066.22;4980207;28;122303;-71
2021/09/23 02:39:22;;;;;;;26.23;10.60;;;;;;;21.53;61.79;101044.38;4965290;28;124492;-71
2021/09/23 02:41:47;;;;;;;25.23;10.57;;;;;;;21.53;62.15;101047.16;4977008;28;122547;-71
2021/09/23 02:44:13;;;;;;;28.43;10.50;;;;;;;21.53;62.06;101030.44;4980276;28;122021;-71
2021/09/23 02:46:39;;;;;;;25.75;11.50;;;;;;;21.53;62.04;101036.00;4986525;28;122167;-71
2021/09/23 02:49:05;;;;;;;27.55;11.38;;;;;;;21.56;62.67;101037.78;4967184;28;123030;-71
2021/09/23 02:51:30;;;;;;;32.78;11.75;;;;;;;21.55;62.07;101027.91;4956873;28;122425;-71
2021/09/23 02:53:56;;;;;;;24.03;11.07;;;;;;;21.54;62.19;101034.75;4989184;28;122653;-71
2021/09/23 02:56:22;;;;;;;28.88;11.18;;;;;;;21.54;62.79;101034.75;4988035;28;122279;-71
2021/09/23 02:58:49;;;;;;;32.20;11.63;;;;;;;21.56;62.47;101040.56;4945250;28;123643;-71
2021/09/23 03:01:19;;;;;;;27.70;11.77;;;;;;;21.55;62.52;101017.50;4963059;28;122016;-71
2021/09/23 03:03:45;;;;;;;27.83;11.57;;;;;;;21.56;62.10;101032.97;4972978;28;123098;-71
2021/09/23 03:06:11;;;;;;;27.33;12.30;;;;;;;21.55;62.17;101022.31;4960342;28;122014;-71
2021/09/23 03:08:37;;;;;;;26.00;11.68;;;;;;;21.55;62.12;101013.94;4969395;28;123522;-71
2021/09/23 03:11:03;;;;;;;22.45;11.48;;;;;;;21.56;62.14;101018.25;4964775;28;123252;-71
2021/09/23 03:13:29;;;;;;;26.80;11.60;;;;;;;21.57;62.44;101017.72;4978342;28;122706;-71
2021/09/23 03:15:55;;;;;;;24.77;11.87;;;;;;;21.59;61.66;100989.28;4969210;28;124677;-71
2021/09/23 03:18:21;;;;;;;20.98;11.45;;;;;;;21.59;61.28;101000.47;4981751;28;122739;-71
2021/09/23 03:20:47;;;;;;;25.83;11.93;;;;;;;21.57;61.48;100989.06;4967804;28;121922;-71
2021/09/23 03:23:14;;;;;;;28.50;11.60;;;;;;;21.61;61.05;100981.16;4983768;28;121706;-71
2021/09/23 03:25:40;;;;;;;22.73;11.17;;;;;;;21.60;60.82;100969.22;4980170;28;121958;-71
2021/09/23 03:28:06;;;;;;;24.95;11.45;;;;;;;21.57;60.58;100972.31;4980635;28;122624;-71
2021/09/23 03:30:34;;;;;;;23.33;11.38;;;;;;;21.55;61.47;100958.88;4972419;28;122097;-71
2021/09/23 03:33:05;;;;;;;25.10;11.07;;;;;;;21.54;61.55;100959.41;4953063;28;121567;-71
2021/09/23 03:35:32;;;;;;;25.65;11.00;;;;;;;21.53;61.64;100963.44;4984095;28;121655;-71
2021/09/23 03:37:58;;;;;;;28.65;11.05;;;;;;;21.56;61.65;100962.44;4962715;28;123948;-71
2021/09/23 03:40:25;;;;;;;26.77;10.70;;;;;;;21.52;62.12;100942.38;4985738;28;122101;-71
2021/09/23 03:42:51;;;;;;;33.92;11.68;;;;;;;21.56;62.28;100917.75;4983314;28;122691;-70
2021/09/23 03:45:17;;;;;;;28.13;11.48;;;;;;;21.58;62.57;100909.63;4974054;28;122683;-70
2021/09/23 03:47:43;;;;;;;24.95;11.00;;;;;;;21.60;62.82;100912.66;4973897;28;121365;-70
2021/09/23 03:50:11;;;;;;;27.30;11.20;;;;;;;21.59;62.91;100906.31;4985407;28;121568;-71
2021/09/23 03:52:37;;;;;;;32.97;12.47;;;;;;;21.62;62.86;100910.09;4981297;28;122023;-71
2021/09/23 03:55:04;;;;;;;30.02;12.02;;;;;;;21.59;63.39;100902.75;4965503;28;121881;-70
2021/09/23 03:57:29;;;;;;;35.40;12.85;;;;;;;21.59;62.77;100900.72;4954404;28;121555;-71
2021/09/23 03:59:55;;;;;;;37.05;13.55;;;;;;;21.63;62.90;100894.84;4948917;28;121616;-71
2021/09/23 04:02:22;;;;;;;37.00;13.80;;;;;;;21.64;62.84;100899.16;4981889;28;121291;-70
2021/09/23 04:04:47;;;;;;;32.90;14.05;;;;;;;21.64;62.93;100885.19;4966365;28;123137;-70
2021/09/23 04:07:13;;;;;;;35.40;14.80;;;;;;;21.65;63.13;100879.09;4961842;28;121858;-71
2021/09/23 04:09:39;;;;;;;38.85;15.07;;;;;;;21.65;63.44;100872.75;4966401;28;122405;-71
2021/09/23 04:12:05;;;;;;;31.77;14.55;;;;;;;21.65;63.52;100875.53;4984476;28;122202;-70
2021/09/23 04:14:31;;;;;;;38.53;15.30;;;;;;;21.65;63.28;100875.53;5001597;28;126527;-71
2021/09/23 04:16:57;;;;;;;38.33;14.98;;;;;;;21.65;63.22;100858.78;4963980;28;123360;-71
2021/09/23 04:19:23;;;;;;;35.33;15.10;;;;;;;21.63;63.17;100856.53;4984015;28;121506;-70
2021/09/23 04:21:50;;;;;;;35.17;14.45;;;;;;;21.63;63.76;100844.63;4962988;28;123209;-71
2021/09/23 04:24:16;;;;;;;37.03;15.02;;;;;;;21.63;62.72;100852.97;4983443;28;121862;-71
2021/09/23 04:26:43;;;;;;;33.75;14.20;;;;;;;21.52;63.24;100833.53;4964774;28;123766;-71
2021/09/23 04:29:09;;;;;;;34.60;14.73;;;;;;;21.61;63.55;100853.50;4962902;28;123106;-71
2021/09/23 04:31:35;;;;;;;35.17;14.13;;;;;;;21.60;63.30;100842.88;4948036;28;124339;-70
2021/09/23 04:34:01;;;;;;;34.00;14.73;;;;;;;21.62;63.05;100854.25;4983786;28;121685;-71
2021/09/23 04:36:27;;;;;;;31.30;14.48;;;;;;;21.62;62.88;100848.69;4988223;28;121984;-71
2021/09/23 04:38:53;;;;;;;34.85;15.05;;;;;;;21.59;62.99;100835.78;4978855;28;121801;-71
2021/09/23 04:41:19;;;;;;;37.67;15.30;;;;;;;21.57;63.69;100844.69;4978813;28;121470;-70
2021/09/23 04:43:47;;;;;;;29.88;14.73;;;;;;;21.56;63.54;100839.63;4979121;28;121432;-71
2021/09/23 04:46:21;;;;;;;35.78;14.38;;;;;;;21.51;63.19;100843.19;4966359;28;121756;-71
2021/09/23 04:48:52;;;;;;;32.33;14.20;;;;;;;21.49;63.54;100835.34;4981251;28;121056;-71
2021/09/23 04:51:20;;;;;;;30.63;13.90;;;;;;;21.44;62.83;100828.56;4980189;28;122135;-70
2021/09/23 04:53:45;;;;;;;36.67;14.15;;;;;;;21.49;63.03;100820.63;4971587;28;121017;-71
2021/09/23 04:56:11;;;;;;;32.85;13.20;;;;;;;21.49;63.78;100812.28;4997958;28;121851;-70
2021/09/23 04:58:37;;;;;;;36.45;14.57;;;;;;;21.50;63.20;100808.19;4972993;28;122833;-70
2021/09/23 05:01:03;;;;;;;29.95;12.77;;;;;;;21.50;63.44;100808.19;4984079;28;121350;-70
2021/09/23 05:03:28;;;;;;;35.80;14.50;;;;;;;21.52;63.77;100814.75;4978765;28;121905;-70
2021/09/23 05:05:54;;;;;;;32.35;13.98;;;;;;;21.50;63.59;100805.41;4966709;28;121384;-70
2021/09/23 05:08:23;;;;;;;30.52;13.27;;;;;;;21.49;63.62;100790.69;4982538;28;121459;-70
2021/09/23 05:10:50;;;;;;;31.90;13.10;;;;;;;21.44;63.70;100789.47;4978182;28;123538;-70
2021/09/23 05:13:16;;;;;;;32.97;12.93;;;;;;;21.47;63.74;100770.19;4978223;28;124450;-71
2021/09/23 05:15:42;;;;;;;33.35;12.60;;;;;;;21.49;63.32;100762.03;4981256;28;122348;-70
2021/09/23 05:18:10;;;;;;;33.65;12.95;;;;;;;21.49;63.28;100745.28;4989145;28;121634;-70
2021/09/23 05:20:36;;;;;;;35.58;12.45;;;;;;;21.52;63.60;100728.25;4976638;28;121731;-70
2021/09/23 05:23:03;;;;;;;31.42;12.32;;;;;;;21.53;63.33;100732.56;4982753;28;126034;-71
2021/09/23 05:25:29;;;;;;;36.83;12.55;;;;;;;21.51;63.20;100732.31;4984171;28;121572;-70
2021/09/23 05:27:58;;;;;;;29.10;12.25;;;;;;;21.54;63.74;100733.34;4986513;28;122277;-70
2021/09/23 05:30:24;;;;;;;36.50;12.82;;;;;;;21.53;63.86;100718.63;4965682;28;122129;-70
2021/09/23 05:32:50;;;;;;;36.83;12.13;;;;;;;21.53;63.75;100723.41;4966415;28;121788;-70
2021/09/23 05:35:16;;;;;;;32.05;12.85;;;;;;;21.57;64.28;100732.28;4982687;28;121464;-71
2021/09/23 05:37:44;;;;;;;30.20;12.50;;;;;;;21.58;63.43;100731.75;4981353;28;124842;-70
2021/09/23 05:40:13;;;;;;;32.05;12.70;;;;;;;21.57;63.40;100709.94;4984865;28;121255;-70
2021/09/23 05:42:40;;;;;;;33.30;12.40;;;;;;;21.57;63.81;100712.75;4983592;28;121649;-71
2021/09/23 05:45:09;;;;;;;28.53;12.17;;;;;;;21.55;63.19;100709.72;4980290;28;121986;-70
2021/09/23 05:47:35;;;;;;;28.45;11.80;;;;;;;21.53;62.97;100713.03;4965824;28;123077;-70
2021/09/23 05:50:01;;;;;;;28.90;12.05;;;;;;;21.52;62.98;100705.94;4978418;28;121717;-70
2021/09/23 05:52:27;;;;;;;29.33;12.07;;;;;;;21.52;63.21;100705.94;4981837;28;121575;-70
2021/09/23 05:54:53;;;;;;;29.13;11.40;;;;;;;21.51;63.52;100714.81;4982186;28;121650;-70
2021/09/23 05:57:32;;;;;;;32.73;12.47;;;;;;;21.53;63.41;100717.84;4984529;28;122005;-70
2021/09/23 05:59:59;;;;;;;30.67;12.02;;;;;;;21.54;63.26;100708.97;4979190;28;121477;-70
2021/09/23 06:02:25;;;;;;;29.02;11.98;;;;;;;21.54;63.40;100702.63;4999679;28;122748;-70
2021/09/23 06:04:50;;;;;;;28.15;11.82;;;;;;;21.55;63.66;100704.91;4982887;28;121295;-70
2021/09/23 06:07:17;;;;;;;28.45;10.18;;;;;;;21.56;63.40;100705.66;4980254;28;123211;-70
2021/09/23 06:09:42;;;;;;;32.55;12.13;;;;;;;21.59;63.13;100713.72;4972553;28;121400;-70
2021/09/23 06:12:08;;;;;;;30.52;12.02;;;;;;;21.59;63.61;100715.75;4977727;28;121683;-70
2021/09/23 06:14:35;;;;;;;28.08;11.30;;;;;;;21.59;63.30;100702.56;4969767;28;121901;-70
2021/09/23 06:17:01;;;;;;;25.42;10.07;;;;;;;21.55;62.36;100698.56;4961704;28;123822;-70
2021/09/23 06:19:27;;;;;;;23.33;9.23;;;;;;;21.55;62.19;100701.34;4979582;28;122098;-70
2021/09/23 06:21:52;;;;;;;23.73;9.20;;;;;;;21.57;62.01;100698.78;4962505;28;121697;-70
2021/09/23 06:24:18;;;;;;;20.15;7.88;;;;;;;21.54;62.04;100697.06;4977764;28;122228;-70
2021/09/23 06:26:43;;;;;;;18.58;7.32;;;;;;;21.55;61.33;100698.56;4976920;28;122487;-71
2021/09/23 06:29:09;;;;;;;17.90;6.87;;;;;;;21.52;61.43;100680.81;4962610;28;122280;-70
2021/09/23 06:31:35;;;;;;;18.90;6.50;;;;;;;21.49;60.62;100673.50;4977767;28;123409;-70
2021/09/23 06:34:02;;;;;;;19.10;6.13;;;;;;;21.50;61.01;100680.59;4979762;28;124209;-70
2021/09/23 06:36:33;;;;;;;21.17;5.90;;;;;;;21.48;60.35;100679.59;4977360;28;122261;-71
2021/09/23 06:38:59;;;;;;;16.77;5.20;;;;;;;21.51;60.69;100678.53;4978912;28;121362;-70
2021/09/23 06:41:25;;;;;;;16.37;5.20;;;;;;;21.50;60.34;100661.06;4978136;28;121599;-70
2021/09/23 06:43:51;;;;;;;15.90;5.53;;;;;;;21.50;60.54;100658.25;4978018;28;122015;-70
2021/09/23 06:46:19;;;;;;;18.10;4.75;;;;;;;21.51;59.80;100667.38;4981481;28;121901;-70
2021/09/23 06:48:44;;;;;;;14.77;4.47;;;;;;;21.51;60.34;100676.50;4976688;28;122305;-70
2021/09/23 06:51:10;;;;;;;19.00;4.95;;;;;;;21.52;60.32;100657.72;4959205;28;122003;-70
2021/09/23 06:53:36;;;;;;;15.45;4.88;;;;;;;21.53;60.23;100656.44;4961715;28;121968;-72
2021/09/23 06:56:02;;;;;;;17.15;4.70;;;;;;;21.55;59.71;100653.91;4973432;28;121779;-71
2021/09/23 06:58:30;;;;;;;14.88;4.53;;;;;;;21.54;59.76;100649.63;4986456;28;121584;-71
2021/09/23 07:01:15;;;;;;;14.27;4.50;;;;;;;21.55;60.57;100656.69;4975098;28;121303;-71
2021/09/23 07:03:43;;;;;;;19.73;4.80;;;;;;;21.51;59.67;100656.97;4976716;28;121129;-71
2021/09/23 07:06:22;;;;;;;16.52;5.05;;;;;;;21.55;59.59;100645.53;4959263;28;122342;-70
2021/09/23 07:08:48;;;;;;;18.58;5.13;;;;;;;21.53;59.88;100643.28;4971035;28;123054;-70
2021/09/23 07:11:16;;;;;;;20.30;5.13;;;;;;;21.56;59.57;100649.84;4937242;28;124755;-70
2021/09/23 07:13:45;;;;;;;13.38;4.10;;;;;;;21.53;59.90;100648.84;4946494;28;123033;-70
2021/09/23 07:16:10;;;;;;;17.60;4.15;;;;;;;21.54;59.72;100647.56;4963808;28;123890;-71
2021/09/23 07:18:36;;;;;;;15.23;4.00;;;;;;;21.51;58.64;100650.63;4986052;28;121713;-71
2021/09/23 07:21:03;;;;;;;16.30;3.88;;;;;;;21.52;59.52;100632.63;4968556;28;121658;-71
2021/09/23 07:23:29;;;;;;;13.55;3.40;;;;;;;21.53;58.70;100637.69;4964568;28;121136;-70
2021/09/23 07:25:55;;;;;;;14.30;3.67;;;;;;;21.53;58.51;100634.91;4960808;28;123525;-70
2021/09/23 07:28:25;;;;;;;15.85;3.67;;;;;;;21.53;58.83;100639.69;4981861;28;121826;-71
2021/09/23 07:30:52;;;;;;;15.47;4.03;;;;;;;21.53;59.29;100631.31;4959472;28;125049;-70
2021/09/23 07:33:18;;;;;;;17.80;3.90;;;;;;;21.57;59.38;100620.63;4962892;28;121325;-73
2021/09/23 07:35:44;;;;;;;18.30;4.07;;;;;;;21.55;59.54;100601.63;4960857;28;122113;-71
2021/09/23 07:38:12;;;;;;;17.98;4.20;;;;;;;21.56;60.22;100597.56;4942306;28;121952;-71
2021/09/23 07:40:38;;;;;;;15.10;3.90;;;;;;;21.54;59.29;100585.41;4961843;28;122525;-71
2021/09/23 07:43:04;;;;;;;16.02;3.83;;;;;;;21.55;59.57;100603.66;4980400;28;124229;-71
2021/09/23 07:45:30;;;;;;;19.67;3.95;;;;;;;21.58;60.02;100602.63;4943592;28;122365;-71
2021/09/23 07:47:56;;;;;;;17.50;4.13;;;;;;;21.59;59.86;100606.91;4954363;28;121630;-72
2021/09/23 07:50:22;;;;;;;19.73;4.30;;;;;;;21.53;59.77;100587.47;4966842;28;123667;-72
2021/09/23 07:52:48;;;;;;;21.27;4.45;;;;;;;21.52;60.02;100583.13;4943149;28;123078;-72
2021/09/23 07:55:14;;;;;;;14.20;3.95;;;;;;;21.55;60.02;100581.34;4946276;28;122846;-72
2021/09/23 07:57:39;;;;;;;20.98;4.30;;;;;;;21.55;60.02;100578.56;4964861;28;122860;-72
2021/09/23 08:00:06;;;;;;;20.40;3.93;;;;;;;21.56;60.06;100560.53;4947949;28;122882;-72
2021/09/23 08:02:42;;;;;;;18.15;3.90;;;;;;;21.55;59.63;100564.59;4973596;28;122005;-71
2021/09/23 08:05:08;;;;;;;16.87;4.23;;;;;;;21.54;59.43;100568.69;4959880;28;123174;-72
2021/09/23 08:07:34;;;;;;;20.17;4.60;;;;;;;21.52;60.31;100562.84;4972438;28;122367;-72
2021/09/23 08:10:00;;;;;;;19.40;4.30;;;;;;;21.53;59.81;100555.97;4981310;28;122074;-74
2021/09/23 08:12:27;;;;;;;18.77;4.25;;;;;;;21.54;59.41;100549.16;4985427;28;122432;-72
2021/09/23 08:14:54;;;;;;;20.42;4.75;;;;;;;21.56;59.94;100546.56;4975913;28;122633;-72
2021/09/23 08:17:49;;;;;;;20.63;4.13;;;;;;;21.59;59.27;100531.56;4969814;28;122037;-72
2021/09/23 08:20:46;;;;;;;18.85;4.45;;;;;;;21.62;60.39;100516.53;4973248;28;122323;-72
2021/09/23 08:23:13;;;;;;;18.67;4.10;;;;;;;21.63;59.77;100504.09;4942662;28;125596;-72
2021/09/23 08:25:40;;;;;;;15.90;4.35;;;;;;;21.64;59.87;100500.00;4942109;28;122301;-72
2021/09/23 08:28:07;;;;;;;17.70;4.40;;;;;;;21.61;60.11;100501.06;4988583;28;122109;-72
2021/09/23 08:30:34;;;;;;;17.40;4.22;;;;;;;21.67;60.23;100496.16;4971552;28;122551;-72
2021/09/23 08:33:00;;;;;;;19.75;4.40;;;;;;;21.70;59.87;100497.88;4953921;28;122405;-71
2021/09/23 08:35:26;;;;;;;20.95;4.25;;;;;;;21.70;59.97;100489.50;4964618;28;122716;-72
2021/09/23 08:37:51;;;;;;;18.25;4.90;;;;;;;;;;4970606;28;121837;-72
2021/09/23 08:40:18;;;;;;;19.02;4.63;;;;;;;21.68;60.21;100478.88;4965233;28;123812;-72
2021/09/23 08:42:45;;;;;;;21.65;4.53;;;;;;;21.66;59.86;100464.69;4962334;28;122295;-72
2021/09/23 08:45:15;;;;;;;19.35;4.22;;;;;;;21.68;60.13;100469.75;4980038;28;122401;-72
2021/09/23 08:47:43;;;;;;;20.75;4.60;;;;;;;21.61;60.02;100464.78;4966711;28;122418;-72
2021/09/23 08:50:12;;;;;;;24.15;4.88;;;;;;;21.70;60.41;100469.97;4963371;28;122123;-71
2021/09/23 08:52:43;;;;;;;24.92;5.40;;;;;;;21.70;60.35;100470.72;4983453;28;122535;-72
2021/09/23 08:55:29;;;;;;;22.13;4.68;;;;;;;21.67;60.11;100477.34;4979352;28;122890;-72
2021/09/23 08:58:13;;;;;;;19.15;4.80;;;;;;;21.64;60.22;100460.94;4959163;28;122455;-71
2021/09/23 09:01:01;;;;;;;20.70;4.50;;;;;;;21.66;59.81;100452.78;4968503;28;122204;-71
2021/09/23 09:03:32;;;;;;;20.40;4.70;;;;;;;21.65;60.21;100442.91;4960151;28;122062;-72
2021/09/23 09:06:08;;;;;;;17.88;4.40;;;;;;;21.57;60.55;100422.50;4965608;28;123399;-72
2021/09/23 09:08:49;;;;;;;21.77;5.10;;;;;;;21.66;60.69;100442.38;4976217;28;122482;-72
2021/09/23 09:11:24;;;;;;;24.10;4.87;;;;;;;21.68;60.18;100439.03;4984452;28;124573;-72
2021/09/23 09:13:52;;;;;;;24.98;5.03;;;;;;;21.70;60.78;100430.88;4980231;28;121930;-72
2021/09/23 09:16:25;;;;;;;22.55;4.85;;;;;;;21.71;61.05;100401.69;4955932;28;122215;-71
2021/09/23 09:18:54;;;;;;;23.50;4.75;;;;;;;21.76;61.05;100417.56;4958881;28;124237;-72
2021/09/23 09:21:23;;;;;;;19.88;4.30;;;;;;;21.78;60.21;100415.03;4961353;28;123964;-72
2021/09/23 09:23:53;;;;;;;22.48;4.82;;;;;;;21.79;60.12;100387.84;4978636;28;123517;-72
2021/09/23 09:26:25;;;;;;;23.02;4.68;;;;;;;21.79;59.90;100412.97;4962335;28;121766;-72
2021/09/23 09:28:55;;;;;;;25.30;4.88;;;;;;;21.75;60.55;100393.72;4953100;28;122215;-71
2021/09/23 09:31:22;;;;;;;21.75;4.82;;;;;;;21.74;60.59;100392.97;4958692;28;124834;-71
2021/09/23 09:33:52;;;;;;;18.80;4.68;;;;;;;21.78;61.02;100409.44;4962048;28;122370;-71
2021/09/23 09:36:24;;;;;;;21.65;4.70;;;;;;;21.78;60.32;100403.09;4984019;28;122602;-72
2021/09/23 09:38:51;;;;;;;19.20;4.07;;;;;;;21.79;60.34;100394.19;4961624;28;122989;-72
2021/09/23 09:41:26;;;;;;;20.58;4.40;;;;;;;21.77;60.37;100380.03;4965124;28;122636;-71
2021/09/23 09:43:56;;;;;;;20.60;4.45;;;;;;;21.78;60.25;100384.31;4954659;28;122434;-71
2021/09/23 09:46:31;;;;;;;19.17;4.65;;;;;;;21.77;61.49;100385.59;4952778;28;122119;-71
2021/09/23 09:48:58;;;;;;;21.40;4.50;;;;;;;21.79;61.13;100396.22;4958659;28;122298;-72
2021/09/23 09:51:35;;;;;;;18.85;4.75;;;;;;;21.75;61.78;100385.34;4981030;28;122305;-72
2021/09/23 09:54:05;;;;;;;18.52;4.78;;;;;;;21.75;62.26;100399.31;4972942;28;122742;-71
2021/09/23 09:56:36;;;;;;;17.45;4.68;;;;;;;21.71;63.60;100393.31;4941914;28;123629;-71
2021/09/23 09:59:16;;;;;;;17.05;4.43;;;;;;;21.67;63.48;100395.66;4942831;28;123168;-72
2021/09/23 10:01:51;;;;;;;18.98;4.43;;;;;;;21.62;64.07;100385.34;4959801;28;122138;-71
2021/09/23 10:04:19;;;;;;;15.80;4.30;;;;;;;21.60;63.98;100382.34;4965250;28;121991;-71
2021/09/23 10:06:48;;;;;;;15.75;4.00;;;;;;;21.56;64.40;100381.91;4976069;28;122432;-72
2021/09/23 10:09:15;;;;;;;15.35;4.03;;;;;;;21.39;64.35;100352.25;4958596;28;123728;-72
2021/09/23 10:11:47;;;;;;;20.00;4.17;;;;;;;21.44;64.44;100376.53;4978330;28;122434;-71
2021/09/23 10:14:15;;;;;;;11.63;3.72;;;;;;;21.40;65.24;100376.09;4981078;28;122180;-72
2021/09/23 10:16:41;;;;;;;11.82;3.80;;;;;;;21.32;64.78;100372.44;4972705;28;121716;-71
2021/09/23 10:19:09;;;;;;;11.52;3.72;;;;;;;21.32;64.96;100368.88;4957720;28;122633;-72
2021/09/23 10:21:38;;;;;;;11.90;4.20;;;;;;;21.32;65.23;100358.47;4980608;28;121700;-71
2021/09/23 10:24:09;;;;;;;14.52;4.20;;;;;;;21.33;65.11;100351.63;4943280;28;122730;-72
2021/09/23 10:26:39;;;;;;;16.00;4.32;;;;;;;21.38;64.91;100341.63;4959961;28;123712;-71
2021/09/23 10:29:05;;;;;;;18.20;5.00;;;;;;;21.40;65.16;100334.25;4962842;28;122854;-72
2021/09/23 10:31:33;;;;;;;15.63;4.70;;;;;;;21.37;64.42;100338.09;4945814;28;125014;-72
2021/09/23 10:34:01;;;;;;;17.43;5.13;;;;;;;21.37;64.92;100354.09;4976420;28;123580;-71
2021/09/23 10:36:33;;;;;;;18.05;5.20;;;;;;;21.36;64.79;100342.19;4979986;28;123408;-72
2021/09/23 10:39:01;;;;;;;21.65;5.68;;;;;;;21.36;64.74;100342.19;4963166;28;122794;-71
2021/09/23 10:41:33;;;;;;;20.38;5.47;;;;;;;21.39;64.86;100331.97;4961806;28;122057;-72
2021/09/23 10:44:00;;;;;;;21.85;5.50;;;;;;;21.39;64.83;100340.34;4984520;28;121851;-71
2021/09/23 10:46:27;;;;;;;23.30;6.03;;;;;;;21.40;65.13;100341.84;4944221;28;124486;-72
2021/09/23 10:48:54;;;;;;;26.25;5.88;;;;;;;21.39;64.81;100329.94;4982269;28;121809;-71
2021/09/23 10:51:23;;;;;;;23.67;5.53;;;;;;;21.42;64.43;100334.44;4965484;28;125267;-71
2021/09/23 10:53:58;;;;;;;23.90;6.07;;;;;;;21.45;64.68;100341.75;4980539;28;122792;-72
2021/09/23 10:56:28;;;;;;;27.48;6.00;;;;;;;21.45;64.48;100338.22;4975226;28;122156;-72
2021/09/23 10:58:57;;;;;;;28.30;5.90;;;;;;;21.45;64.35;100330.59;4977704;28;123717;-72
2021/09/23 11:01:31;;;;;;;26.15;6.03;;;;;;;21.45;64.16;100336.16;4964824;28;123262;-72
2021/09/23 11:03:59;;;;;;;27.17;6.15;;;;;;;21.42;64.60;100334.44;4964025;28;123280;-72
2021/09/23 11:06:35;;;;;;;24.38;6.13;;;;;;;21.45;64.14;100338.22;4982136;28;121820;-72
2021/09/23 11:09:22;;;;;;;24.77;5.97;;;;;;;21.45;64.63;100327.78;4969928;28;121927;-72
2021/09/23 11:11:58;;;;;;;23.00;5.65;;;;;;;21.44;64.15;100340.25;4953638;28;125146;-72
2021/09/23 11:14:27;;;;;;;23.53;5.47;;;;;;;21.38;63.95;100310.94;4963578;28;122207;-72